Time;durP1;ratioP1;P1;durP2;ratioP2;P2;SDS_P1;SDS_P2;PMS_P1;PMS_P2;Temp;Humidity;BMP_temperature;BMP_pressure;BME280_temperature;BME280_humidity;BME280_pressure;Samples;Min_cycle;Max_cycle;Signal;HPM_P1;HPM_P2
2021/08/16 00:00:44;;;;;;;3.80;1.90;;;18.10;43.10;;;;;;6160517;23;20409;-89
2021/08/16 00:03:41;;;;;;;7.00;2.30;;;17.90;43.50;;;;;;6195685;23;20383;-89
2021/08/16 00:06:19;;;;;;;5.23;2.60;;;17.80;42.40;;;;;;6155522;23;20948;-90
2021/08/16 00:08:46;;;;;;;3.83;2.00;;;17.70;41.90;;;;;;6184505;23;20880;-84
2021/08/16 00:11:30;;;;;;;9.50;2.00;;;17.70;41.20;;;;;;6185742;23;20408;-88
2021/08/16 00:14:03;;;;;;;4.43;2.13;;;17.50;41.10;;;;;;6184606;23;20801;-89
2021/08/16 00:16:48;;;;;;;5.50;1.70;;;17.50;39.30;;;;;;6195886;23;20436;-89
2021/08/16 00:19:34;;;;;;;;;;;;;;;;;;;;;
2021/08/16 00:22:05;;;;;;;10.90;2.27;;;17.20;39.60;;;;;;6195721;23;20491;-89
2021/08/16 00:24:51;;;;;;;6.77;2.43;;;17.10;41.00;;;;;;6194967;23;20472;-88
2021/08/16 00:27:48;;;;;;;10.37;2.50;;;17.10;40.80;;;;;;6195911;23;20424;-88
2021/08/16 00:30:21;;;;;;;8.10;2.77;;;16.90;41.50;;;;;;6103601;23;20494;-89
2021/08/16 00:33:01;;;;;;;6.10;2.23;;;16.80;40.40;;;;;;6104039;23;20530;-88
2021/08/16 00:36:09;;;;;;;7.57;2.00;;;16.70;39.00;;;;;;6104243;23;20415;-88
2021/08/16 00:38:40;;;;;;;7.03;2.43;;;16.60;39.30;;;;;;6194132;23;20416;-88
2021/08/16 00:41:26;;;;;;;6.57;2.00;;;16.50;38.90;;;;;;6195697;23;20404;-89
2021/08/16 00:44:16;;;;;;;;;;;;;;;;;;;;;
2021/08/16 00:47:10;;;;;;;6.57;2.20;;;16.30;40.90;;;;;;6195082;23;20405;-89
2021/08/16 00:49:40;;;;;;;7.13;2.60;;;16.10;42.20;;;;;;6195746;23;20508;-88
2021/08/16 00:52:36;;;;;;;5.40;2.17;;;16.00;43.00;;;;;;6195251;23;20409;-88
2021/08/16 00:55:10;;;;;;;9.70;2.43;;;15.90;43.20;;;;;;6195195;23;20411;-87
2021/08/16 00:57:45;;;;;;;6.10;2.53;;;15.90;41.70;;;;;;6195429;23;20951;-87
2021/08/16 01:00:20;;;;;;;11.33;2.80;;;15.90;41.70;;;;;;6195527;23;20408;-89
2021/08/16 01:02:52;;;;;;;7.70;2.10;;;15.80;41.90;;;;;;6195280;23;20440;-89
2021/08/16 01:05:27;;;;;;;7.03;2.10;;;15.70;41.50;;;;;;6195157;23;20419;-89
2021/08/16 01:07:59;;;;;;;11.30;2.57;;;15.50;42.90;;;;;;6184185;23;20476;-89
2021/08/16 01:10:30;;;;;;;7.27;3.00;;;15.40;43.70;;;;;;6195352;23;20417;-88
2021/08/16 01:13:04;;;;;;;6.00;1.97;;;15.40;44.80;;;;;;6195080;23;20500;-89
2021/08/16 01:15:33;;;;;;;13.87;2.83;;;15.20;45.20;;;;;;6195276;23;20472;-89
2021/08/16 01:18:02;;;;;;;7.53;2.80;;;15.10;46.90;;;;;;6194952;23;20440;-89
2021/08/16 01:20:44;;;;;;;6.60;3.10;;;15.00;48.50;;;;;;6195083;23;20408;-89
2021/08/16 01:23:15;;;;;;;6.20;2.60;;;15.00;48.60;;;;;;6183958;23;20444;-88
2021/08/16 01:26:01;;;;;;;13.40;3.23;;;15.00;48.60;;;;;;6195517;23;20496;-89
2021/08/16 01:28:34;;;;;;;5.40;3.00;;;15.00;48.60;;;;;;6181385;23;20428;-87
2021/08/16 01:31:04;;;;;;;10.93;4.17;;;14.90;48.50;;;;;;6195316;23;20413;-89
2021/08/16 01:36:24;;;;;;;10.43;3.50;;;14.90;48.50;;;;;;6184303;23;20562;-89
2021/08/16 01:39:26;;;;;;;9.73;3.03;;;14.90;48.50;;;;;;6193666;23;20490;-89
2021/08/16 01:41:53;;;;;;;11.07;2.87;;;14.90;48.50;;;;;;6119147;23;20407;-90
2021/08/16 01:44:24;;;;;;;4.60;2.97;;;14.90;48.50;;;;;;6185403;23;20420;-89
2021/08/16 01:46:59;;;;;;;7.13;3.13;;;14.80;48.40;;;;;;6195378;23;20416;-88
2021/08/16 01:49:27;;;;;;;6.50;2.70;;;14.80;48.40;;;;;;6195133;23;20488;-90
2021/08/16 01:51:57;;;;;;;5.77;2.80;;;14.80;48.40;;;;;;6194940;23;20438;-90
2021/08/16 01:54:33;;;;;;;13.53;3.37;;;14.70;48.30;;;;;;6194184;23;20401;-89
2021/08/16 01:57:02;;;;;;;5.67;3.20;;;14.80;47.90;;;;;;6194893;23;20529;-90
2021/08/16 01:59:57;;;;;;;5.03;3.00;;;14.70;48.30;;;;;;6196260;23;20443;-89
2021/08/16 02:02:27;;;;;;;6.70;2.33;;;14.80;47.30;;;;;;6196697;23;20421;-88
2021/08/16 02:04:57;;;;;;;9.50;2.60;;;14.90;46.40;;;;;;6197278;23;20492;-88
2021/08/16 02:07:39;;;;;;;6.20;2.40;;;14.90;45.50;;;;;;6185410;23;20401;-88
2021/08/16 02:10:21;;;;;;;4.93;1.97;;;14.90;44.50;;;;;;6196989;23;20423;-87
2021/08/16 02:13:10;;;;;;;8.97;3.27;;;15.00;43.70;;;;;;6196612;23;20420;-88
2021/08/16 02:15:57;;;;;;;10.13;2.60;;;15.20;42.80;;;;;;6196672;23;20895;-88
2021/08/16 02:18:28;;;;;;;8.43;2.30;;;15.20;42.50;;;;;;6196592;23;20436;-90
2021/08/16 02:21:00;;;;;;;5.23;2.27;;;15.40;41.20;;;;;;6196620;23;20423;-88
2021/08/16 02:23:57;;;;;;;6.70;1.87;;;15.40;41.10;;;;;;6195387;23;20511;-88
2021/08/16 02:26:33;;;;;;;5.60;2.97;;;15.30;41.50;;;;;;6186960;23;20419;-88
2021/08/16 02:29:03;;;;;;;8.70;2.33;;;15.30;41.80;;;;;;6196654;23;20430;-87
2021/08/16 02:31:46;;;;;;;5.50;2.70;;;15.30;41.80;;;;;;6196633;23;20751;-87
2021/08/16 02:34:25;;;;;;;7.27;2.10;;;15.30;41.40;;;;;;6185810;23;20420;-88
2021/08/16 02:36:56;;;;;;;6.53;2.77;;;15.20;41.90;;;;;;6196449;23;20916;-87
2021/08/16 02:39:28;;;;;;;8.20;2.23;;;15.30;41.90;;;;;;6185411;23;20412;-88
2021/08/16 02:42:02;;;;;;;14.50;3.30;;;15.30;41.90;;;;;;6196751;23;20417;-88
2021/08/16 02:44:42;;;;;;;11.63;3.30;;;15.20;41.90;;;;;;6196759;23;20408;-88
2021/08/16 02:47:21;;;;;;;5.07;1.77;;;15.30;41.80;;;;;;6196846;23;20397;-88
2021/08/16 02:49:53;;;;;;;5.13;2.03;;;15.30;42.00;;;;;;6186657;23;20472;-87
2021/08/16 02:52:31;;;;;;;8.33;2.10;;;15.40;42.00;;;;;;6195592;23;20485;-88
2021/08/16 02:55:13;;;;;;;;;;;;;;;;;;;;;
2021/08/16 02:57:46;;;;;;;6.57;2.53;;;15.40;42.40;;;;;;6185693;23;20462;-88
2021/08/16 03:00:29;;;;;;;21.13;3.97;;;15.40;42.40;;;;;;6186636;23;20736;-88
2021/08/16 03:03:02;;;;;;;17.37;2.63;;;15.50;42.30;;;;;;6195976;23;20792;-88
2021/08/16 03:05:43;;;;;;;7.80;2.50;;;15.60;42.70;;;;;;6196627;23;20798;-89
2021/08/16 03:08:19;;;;;;;5.50;2.73;;;15.60;42.30;;;;;;6195455;23;20420;-88
2021/08/16 03:10:55;;;;;;;10.27;2.70;;;15.70;43.00;;;;;;6195868;23;20412;-89
2021/08/16 03:13:37;;;;;;;7.63;2.70;;;15.70;43.00;;;;;;6196595;23;20483;-88
2021/08/16 03:16:04;;;;;;;16.13;3.23;;;15.70;42.80;;;;;;6196418;23;20417;-89
2021/08/16 03:18:39;;;;;;;4.87;2.43;;;15.70;42.60;;;;;;6186090;23;20928;-89
2021/08/16 03:21:20;;;;;;;7.77;2.50;;;15.70;42.70;;;;;;6196141;23;20420;-89
2021/08/16 03:23:47;;;;;;;8.43;2.90;;;15.60;42.80;;;;;;6195255;23;20895;-90
2021/08/16 03:26:50;;;;;;;10.17;2.63;;;15.60;43.00;;;;;;6186018;23;20401;-89
2021/08/16 03:30:01;;;;;;;;;;;;;;;;;;;;;
2021/08/16 03:33:24;;;;;;;4.80;2.30;;;15.60;43.70;;;;;;6102229;23;20444;-89
2021/08/16 03:36:36;;;;;;;7.90;3.17;;;15.60;44.20;;;;;;6195709;23;20475;-89
2021/08/16 03:39:50;;;;;;;5.37;1.90;;;15.70;44.10;;;;;;6122530;23;20739;-88
2021/08/16 03:42:25;;;;;;;8.80;3.20;;;15.80;43.80;;;;;;6114062;23;20535;-86
2021/08/16 03:44:55;;;;;;;11.60;3.30;;;15.80;44.00;;;;;;6196214;23;20439;-89
2021/08/16 03:50:39;;;;;;;14.03;2.77;;;15.90;44.60;;;;;;6180934;23;20975;-89
2021/08/16 03:59:33;;;;;;;6.50;2.20;;;15.80;44.90;;;;;;6169692;23;20417;-88
2021/08/16 04:02:48;;;;;;;16.33;3.20;;;15.80;45.30;;;;;;6196069;23;20730;-90
2021/08/16 04:06:01;;;;;;;13.20;2.60;;;15.90;45.40;;;;;;6135052;23;20420;-90
2021/08/16 04:08:38;;;;;;;8.03;2.60;;;15.90;45.30;;;;;;6064353;23;20420;-90
2021/08/16 04:11:29;;;;;;;10.67;3.20;;;15.90;45.50;;;;;;6075319;23;20430;-87
2021/08/16 04:18:10;;;;;;;;;;;;;;;;;;;;;
2021/08/16 04:20:54;;;;;;;7.83;2.27;;;16.00;45.10;;;;;;6179781;23;20423;-88
2021/08/16 04:23:21;;;;;;;5.00;2.37;;;16.00;45.00;;;;;;6193588;23;20925;-78
2021/08/16 04:25:48;;;;;;;10.57;3.87;;;16.00;45.40;;;;;;6185974;23;20401;-77
2021/08/16 04:28:15;;;;;;;9.33;2.47;;;16.00;45.20;;;;;;6185920;23;20484;-77
2021/08/16 04:30:42;;;;;;;6.80;2.47;;;16.00;45.30;;;;;;6185837;23;20401;-78
2021/08/16 04:33:09;;;;;;;8.00;2.87;;;16.10;45.70;;;;;;6185851;23;20433;-78
2021/08/16 04:35:36;;;;;;;8.73;2.70;;;16.00;45.70;;;;;;6185799;23;20401;-77
2021/08/16 04:38:04;;;;;;;5.20;1.93;;;16.00;45.40;;;;;;6184102;23;20519;-80
2021/08/16 04:40:34;;;;;;;9.60;3.50;;;16.10;46.10;;;;;;6185857;23;20443;-90
2021/08/16 04:43:44;;;;;;;;;;;;;;;;;;;;;
2021/08/16 04:46:11;;;;;;;13.33;3.50;;;16.10;45.30;;;;;;6196441;23;20397;-81
2021/08/16 04:48:38;;;;;;;11.37;3.30;;;16.10;45.60;;;;;;6189072;23;20711;-82
2021/08/16 04:51:05;;;;;;;12.90;3.60;;;16.10;45.70;;;;;;6185875;23;20496;-81
2021/08/16 04:53:33;;;;;;;7.17;3.10;;;16.10;45.80;;;;;;6184912;23;20397;-81
2021/08/16 04:56:00;;;;;;;6.63;3.40;;;16.20;45.70;;;;;;6186089;23;20404;-83
2021/08/16 04:58:26;;;;;;;8.33;3.67;;;16.20;45.60;;;;;;6185710;23;20448;-82
2021/08/16 05:00:54;;;;;;;8.13;2.87;;;16.20;45.70;;;;;;6186390;23;20407;-87
2021/08/16 05:03:20;;;;;;;12.97;3.77;;;16.20;45.70;;;;;;6196302;23;20405;-83
2021/08/16 05:10:06;;;;;;;;;;;;;;;;;;;;;
2021/08/16 05:32:39;;;;;;;10.40;3.97;;;16.30;46.90;;;;;;5816855;24;20504;-89
2021/08/16 05:35:07;;;;;;;7.10;2.90;;;16.40;47.30;;;;;;5949733;23;20418;-80
2021/08/16 05:37:34;;;;;;;7.00;3.60;;;16.40;46.40;;;;;;6134806;23;20444;-82
2021/08/16 05:40:01;;;;;;;5.40;2.67;;;16.60;47.70;;;;;;6188640;23;20407;-80
2021/08/16 05:42:28;;;;;;;6.87;3.03;;;16.50;45.70;;;;;;6189250;23;20397;-82
2021/08/16 05:44:56;;;;;;;7.07;2.77;;;16.60;45.90;;;;;;6188186;23;20713;-78
2021/08/16 05:47:22;;;;;;;7.20;3.10;;;16.60;46.00;;;;;;6187749;23;20404;-81
2021/08/16 05:49:50;;;;;;;12.07;2.60;;;16.70;45.10;;;;;;6187564;23;20735;-80
2021/08/16 05:52:18;;;;;;;11.30;3.70;;;16.70;45.20;;;;;;6186330;23;20407;-79
2021/08/16 05:54:45;;;;;;;8.83;4.30;;;16.80;45.20;;;;;;6187205;23;20480;-79
2021/08/16 05:57:15;;;;;;;7.60;3.10;;;16.80;45.10;;;;;;6186820;23;20439;-80
2021/08/16 06:00:35;;;;;;;;;;;;;;;;;;;;;
2021/08/16 06:27:24;;;;;;;10.07;3.93;;;17.40;42.00;;;;;;5862635;24;20426;-93
2021/08/16 06:29:51;;;;;;;7.60;2.80;;;17.60;41.70;;;;;;6020326;23;20426;-81
2021/08/16 06:32:18;;;;;;;6.40;2.77;;;17.60;39.90;;;;;;6097885;23;20503;-86
2021/08/16 06:34:45;;;;;;;9.93;2.87;;;17.60;40.30;;;;;;6145248;23;20516;-82
2021/08/16 06:37:12;;;;;;;8.30;3.57;;;17.60;40.70;;;;;;6187026;23;20405;-83
2021/08/16 06:39:51;;;;;;;5.50;2.30;;;17.80;41.10;;;;;;6185225;23;20516;-84
2021/08/16 06:42:20;;;;;;;11.93;3.10;;;17.90;39.60;;;;;;6196978;23;20405;-84
2021/08/16 06:44:50;;;;;;;7.53;2.77;;;17.90;39.90;;;;;;6186234;23;20401;-84
2021/08/16 06:47:17;;;;;;;7.37;2.40;;;18.00;40.20;;;;;;6196205;23;20978;-84
2021/08/16 06:49:45;;;;;;;11.00;3.60;;;18.10;39.60;;;;;;6186616;23;20475;-83
2021/08/16 06:52:13;;;;;;;6.43;2.60;;;18.10;39.30;;;;;;6183891;23;20400;-81
2021/08/16 06:54:40;;;;;;;6.90;2.77;;;18.10;39.70;;;;;;6184124;23;20469;-82
2021/08/16 06:57:20;;;;;;;8.07;3.27;;;18.10;39.90;;;;;;6184764;23;20515;-82
2021/08/16 06:59:48;;;;;;;7.77;3.53;;;18.10;39.30;;;;;;6194572;23;20476;-82
2021/08/16 07:02:15;;;;;;;8.90;4.70;;;18.30;39.20;;;;;;6184916;23;20408;-80
2021/08/16 07:05:21;;;;;;;;;;;;;;;;;;;;;
2021/08/16 07:08:00;;;;;;;8.40;3.10;;;18.70;36.70;;;;;;6195501;23;20727;-83
2021/08/16 07:13:25;;;;;;;10.50;3.47;;;18.90;35.70;;;;;;6161568;23;20996;-83
2021/08/16 07:15:53;;;;;;;10.47;2.73;;;18.90;35.40;;;;;;6186515;23;20456;-82
2021/08/16 07:18:20;;;;;;;12.67;4.07;;;18.80;36.10;;;;;;6186261;23;20437;-84
2021/08/16 07:20:47;;;;;;;12.93;3.47;;;19.00;37.70;;;;;;6195412;23;20496;-82
2021/08/16 07:23:15;;;;;;;6.80;3.07;;;19.10;36.60;;;;;;6184948;23;20441;-88
2021/08/16 07:25:42;;;;;;;9.47;3.23;;;19.10;34.40;;;;;;6186686;23;20405;-87
2021/08/16 07:28:09;;;;;;;8.23;3.33;;;18.90;34.30;;;;;;6186721;23;20405;-87
2021/08/16 07:30:36;;;;;;;6.70;2.47;;;19.00;34.40;;;;;;6186344;23;20405;-90
2021/08/16 07:33:05;;;;;;;7.13;2.77;;;18.90;34.30;;;;;;6186579;23;20428;-90
2021/08/16 07:35:32;;;;;;;7.37;2.63;;;19.00;35.00;;;;;;6186869;23;20783;-87
2021/08/16 07:38:05;;;;;;;11.20;3.20;;;19.00;35.80;;;;;;6186270;23;20412;-89
2021/08/16 07:40:34;;;;;;;9.43;2.97;;;19.30;34.60;;;;;;6195863;23;20892;-89
2021/08/16 07:43:01;;;;;;;9.23;3.73;;;19.20;34.50;;;;;;6189311;23;20402;-87
2021/08/16 07:45:28;;;;;;;12.77;2.60;;;19.50;35.40;;;;;;6188588;23;20737;-89
2021/08/16 07:47:56;;;;;;;8.60;2.37;;;19.30;34.10;;;;;;6196028;23;20410;-89
2021/08/16 07:50:24;;;;;;;6.07;2.50;;;19.50;34.80;;;;;;6186157;23;20458;-89
2021/08/16 07:52:53;;;;;;;4.90;2.80;;;19.60;34.40;;;;;;6194737;23;20412;-89
2021/08/16 07:55:21;;;;;;;10.00;2.10;;;19.50;33.00;;;;;;6195775;23;20443;-89
2021/08/16 07:57:48;;;;;;;10.07;2.60;;;19.40;32.80;;;;;;6195704;23;20731;-87
2021/08/16 08:00:16;;;;;;;9.47;3.03;;;19.40;34.70;;;;;;6196243;23;20409;-90
2021/08/16 08:02:44;;;;;;;5.73;2.10;;;19.20;34.10;;;;;;6186149;23;20492;-90
2021/08/16 08:05:13;;;;;;;4.70;2.03;;;19.10;34.50;;;;;;6196018;23;20436;-87
2021/08/16 08:07:41;;;;;;;8.80;3.40;;;18.90;34.30;;;;;;6194934;23;20416;-89
2021/08/16 08:10:10;;;;;;;8.90;3.20;;;19.00;34.80;;;;;;6185696;23;20404;-86
2021/08/16 08:12:37;;;;;;;5.43;2.40;;;19.00;34.40;;;;;;6134229;23;20425;-88
2021/08/16 08:15:06;;;;;;;6.33;2.30;;;19.00;34.40;;;;;;6185923;23;20424;-81
2021/08/16 08:17:33;;;;;;;8.70;2.97;;;19.00;34.40;;;;;;6185260;23;20480;-88
2021/08/16 08:20:00;;;;;;;7.17;2.70;;;18.90;34.30;;;;;;6186092;23;20440;-84
2021/08/16 08:22:27;;;;;;;5.30;2.40;;;18.80;35.70;;;;;;6193904;23;20767;-88
2021/08/16 08:24:56;;;;;;;5.77;3.13;;;18.80;35.20;;;;;;6186175;23;20402;-87
2021/08/16 08:27:23;;;;;;;5.83;2.23;;;18.90;36.00;;;;;;6186917;23;20402;-87
2021/08/16 08:29:50;;;;;;;7.43;2.80;;;19.00;34.70;;;;;;6186022;23;20429;-85
2021/08/16 08:32:17;;;;;;;6.00;2.57;;;19.20;35.80;;;;;;6185668;23;20440;-88
2021/08/16 08:34:47;;;;;;;12.73;2.97;;;19.40;34.70;;;;;;6186415;23;20736;-87
2021/08/16 08:37:14;;;;;;;10.00;2.60;;;20.00;34.70;;;;;;6186276;23;20401;-84
2021/08/16 08:39:41;;;;;;;8.00;2.57;;;20.40;32.20;;;;;;6185503;23;20491;-87
2021/08/16 08:42:11;;;;;;;8.50;3.00;;;20.70;29.80;;;;;;6196271;23;20488;-82
2021/08/16 08:44:42;;;;;;;6.97;2.30;;;21.20;27.50;;;;;;6195384;23;20509;-80
2021/08/16 08:47:09;;;;;;;5.97;2.30;;;21.40;28.10;;;;;;6185745;23;20485;-86
2021/08/16 08:49:37;;;;;;;8.73;2.60;;;21.60;26.80;;;;;;6195798;23;20785;-87
2021/08/16 08:52:04;;;;;;;7.20;2.00;;;21.80;25.50;;;;;;6195526;23;20452;-88
2021/08/16 08:54:34;;;;;;;6.93;2.43;;;21.40;25.90;;;;;;6194525;23;20405;-84
2021/08/16 08:57:11;;;;;;;4.67;2.20;;;21.30;26.30;;;;;;6185325;23;20753;-80
2021/08/16 08:59:40;;;;;;;4.70;2.30;;;20.90;27.70;;;;;;6184949;23;20432;-81
2021/08/16 09:02:07;;;;;;;4.93;1.67;;;20.90;26.70;;;;;;6195009;23;20830;-80
2021/08/16 09:04:44;;;;;;;;;;;;;;;;;;;;;
2021/08/16 09:07:13;;;;;;;5.93;2.10;;;20.90;26.20;;;;;;6193242;23;20758;-81
2021/08/16 09:10:04;;;;;;;4.57;1.60;;;20.80;27.60;;;;;;6193886;23;20408;-81
2021/08/16 09:12:34;;;;;;;5.50;2.23;;;21.00;27.70;;;;;;6195554;23;20912;-81
2021/08/16 09:15:03;;;;;;;5.80;2.13;;;20.90;26.40;;;;;;6185536;23;20433;-80
2021/08/16 09:17:32;;;;;;;8.47;2.37;;;21.00;27.70;;;;;;6185447;23;20401;-80
2021/08/16 09:19:59;;;;;;;5.67;2.47;;;20.60;27.40;;;;;;6185299;23;20801;-87
2021/08/16 09:22:30;;;;;;;5.40;2.23;;;20.70;27.60;;;;;;6183728;23;20444;-85
2021/08/16 09:25:03;;;;;;;5.10;2.47;;;20.60;27.50;;;;;;6185558;23;20456;-81
2021/08/16 09:27:30;;;;;;;5.93;2.40;;;20.80;27.60;;;;;;6185328;23;20401;-83
2021/08/16 09:29:57;;;;;;;5.17;1.80;;;20.70;27.00;;;;;;6195335;23;20500;-82
2021/08/16 09:32:35;;;;;;;10.70;1.97;;;20.80;27.60;;;;;;6185079;23;20903;-88
2021/08/16 09:53:06;;;;;;;4.00;2.10;;;22.10;23.90;;;;;;6019579;23;20991;-80
2021/08/16 09:55:34;;;;;;;5.37;2.07;;;22.50;23.50;;;;;;6123449;23;20432;-80
2021/08/16 09:58:02;;;;;;;5.97;1.87;;;22.70;21.70;;;;;;6185546;23;20408;-81
2021/08/16 10:00:31;;;;;;;6.83;2.20;;;22.80;21.70;;;;;;6185497;23;20444;-81
2021/08/16 10:03:03;;;;;;;6.33;2.57;;;21.90;21.10;;;;;;6184958;23;20484;-85
2021/08/16 10:05:52;;;;;;;5.20;2.00;;;21.70;23.10;;;;;;6185787;23;20436;-83
2021/08/16 10:08:27;;;;;;;5.87;1.70;;;21.30;22.30;;;;;;6183697;23;20403;-87
2021/08/16 10:10:59;;;;;;;5.20;1.77;;;21.00;24.00;;;;;;6182173;23;20495;-85
2021/08/16 10:13:45;;;;;;;6.67;2.00;;;21.00;25.70;;;;;;6193956;23;20962;-83
2021/08/16 10:16:27;;;;;;;;;;;;;;;;;;;;;
2021/08/16 10:19:04;;;;;;;5.87;1.77;;;20.80;24.20;;;;;;6119929;23;20932;-86
2021/08/16 10:21:40;;;;;;;7.10;2.70;;;20.70;25.00;;;;;;6187143;23;20455;-88
2021/08/16 10:24:25;;;;;;;9.80;2.20;;;20.70;27.10;;;;;;6185306;23;20436;-86
2021/08/16 10:26:57;;;;;;;5.83;2.10;;;20.30;29.40;;;;;;6186584;23;20433;-87
2021/08/16 10:29:31;;;;;;;5.40;1.77;;;19.60;32.30;;;;;;6197011;23;20428;-86
2021/08/16 10:32:00;;;;;;;7.80;3.20;;;19.00;37.30;;;;;;6186584;23;20400;-85
2021/08/16 10:34:29;;;;;;;10.50;3.47;;;18.70;44.40;;;;;;6186988;23;20433;-84
2021/08/16 10:37:00;;;;;;;5.00;2.43;;;18.40;45.70;;;;;;6186738;23;20484;-85
2021/08/16 10:39:37;;;;;;;5.73;3.80;;;17.50;50.90;;;;;;6185463;23;20429;-84
2021/08/16 10:42:13;;;;;;;8.00;6.00;;;17.50;56.30;;;;;;6186932;23;20401;-86
2021/08/16 10:44:46;;;;;;;11.67;10.57;;;17.10;65.10;;;;;;6186639;23;20440;-82
2021/08/16 10:47:25;;;;;;;40.53;38.73;;;16.80;73.00;;;;;;6196844;23;20467;-84
2021/08/16 10:50:04;;;;;;;55.80;53.10;;;15.70;99.90;;;;;;6186961;23;20401;-84
2021/08/16 10:52:36;;;;;;;68.07;65.13;;;15.70;99.90;;;;;;6195088;23;20416;-85
2021/08/16 10:55:30;;;;;;;92.63;88.43;;;15.30;99.90;;;;;;6196463;23;20437;-87
2021/08/16 10:58:06;;;;;;;87.90;83.70;;;15.00;99.90;;;;;;6151740;23;20466;-84
2021/08/16 11:00:54;;;;;;;75.33;71.33;;;15.40;99.90;;;;;;6186745;23;20436;-85
2021/08/16 11:06:31;;;;;;;102.80;98.00;;;15.80;99.90;;;;;;6183548;23;20432;-83
2021/08/16 11:09:00;;;;;;;137.83;131.77;;;16.50;99.90;;;;;;6194811;23;20405;-87
2021/08/16 11:11:30;;;;;;;127.57;121.97;;;16.80;99.90;;;;;;6196199;23;20420;-87
2021/08/16 11:14:07;;;;;;;121.70;116.43;;;17.20;99.90;;;;;;6185875;23;20780;-86
2021/08/16 11:19:46;;;;;;;64.33;61.43;;;17.10;99.90;;;;;;6133096;23;20484;-83
2021/08/16 11:22:14;;;;;;;41.67;39.37;;;16.70;99.90;;;;;;6186253;23;20397;-84
2021/08/16 11:24:43;;;;;;;37.80;36.00;;;16.40;99.90;;;;;;6195470;23;20429;-85
2021/08/16 11:27:17;;;;;;;39.70;37.97;;;16.20;99.90;;;;;;6186708;23;20492;-85
2021/08/16 11:29:46;;;;;;;51.33;49.23;;;16.30;99.90;;;;;;6186346;23;20397;-87
2021/08/16 11:32:23;;;;;;;45.03;42.93;;;16.80;99.90;;;;;;6196023;23;20495;-86
2021/08/16 11:34:53;;;;;;;27.53;25.60;;;16.90;99.90;;;;;;6186489;23;20483;-87
2021/08/16 11:37:30;;;;;;;19.97;18.97;;;16.90;99.90;;;;;;6184588;23;20907;-85
2021/08/16 11:39:58;;;;;;;20.67;19.33;;;16.70;99.90;;;;;;6186385;23;20425;-85
2021/08/16 11:42:29;;;;;;;12.87;11.97;;;16.50;99.90;;;;;;6196496;23;20488;-82
2021/08/16 11:44:58;;;;;;;14.07;13.10;;;16.30;99.90;;;;;;6186514;23;20497;-86
2021/08/16 11:47:30;;;;;;;14.30;13.30;;;16.10;99.90;;;;;;6196516;23;20440;-85
2021/08/16 11:50:01;;;;;;;18.27;17.17;;;16.00;99.90;;;;;;6196174;23;20409;-87
2021/08/16 11:52:29;;;;;;;33.47;31.87;;;16.00;99.90;;;;;;6194612;23;20413;-83
2021/08/16 11:54:56;;;;;;;29.53;27.00;;;16.20;99.90;;;;;;6186183;23;20764;-84
2021/08/16 11:57:23;;;;;;;28.37;26.83;;;16.00;99.90;;;;;;6186421;23;20500;-86
2021/08/16 12:00:06;;;;;;;27.90;25.93;;;15.90;99.90;;;;;;6195854;23;20432;-85
2021/08/16 12:02:38;;;;;;;16.60;15.03;;;15.80;99.90;;;;;;6196358;23;20468;-87
2021/08/16 12:05:06;;;;;;;13.90;12.80;;;15.50;99.90;;;;;;6185736;23;20861;-88
2021/08/16 12:07:35;;;;;;;16.90;8.47;;;15.40;99.90;;;;;;6184680;23;20409;-87
2021/08/16 12:10:02;;;;;;;8.67;6.87;;;15.10;99.90;;;;;;6186368;23;20460;-87
2021/08/16 12:12:30;;;;;;;12.07;11.07;;;15.00;99.90;;;;;;6196058;23;20412;-88
2021/08/16 12:15:05;;;;;;;15.13;13.70;;;15.00;99.90;;;;;;6196262;23;20499;-88
2021/08/16 12:17:32;;;;;;;12.47;11.27;;;15.20;99.90;;;;;;6185935;23;20487;-87
2021/08/16 12:20:07;;;;;;;17.67;16.47;;;15.30;99.90;;;;;;6196059;23;20520;-87
2021/08/16 12:22:34;;;;;;;18.47;16.63;;;15.60;99.90;;;;;;6184369;23;20405;-89
2021/08/16 12:25:05;;;;;;;24.10;22.00;;;15.70;99.90;;;;;;6186185;23;20402;-86
2021/08/16 12:27:32;;;;;;;22.60;21.07;;;15.70;99.90;;;;;;6195864;23;20452;-89
2021/08/16 12:29:59;;;;;;;26.37;24.87;;;15.80;99.90;;;;;;6185808;23;20413;-87
2021/08/16 12:32:30;;;;;;;33.40;31.50;;;15.90;99.90;;;;;;6186155;23;20401;-88
2021/08/16 12:34:58;;;;;;;46.23;43.63;;;16.00;99.90;;;;;;6195965;23;20406;-88
2021/08/16 12:37:27;;;;;;;53.17;50.17;;;16.10;99.90;;;;;;6184372;23;20480;-87
2021/08/16 12:40:06;;;;;;;67.27;63.57;;;16.10;99.90;;;;;;6185464;23;20425;-88
2021/08/16 12:42:33;;;;;;;47.23;44.23;;;16.30;99.90;;;;;;6195501;23;20401;-87
2021/08/16 12:45:01;;;;;;;41.67;39.50;;;16.40;99.90;;;;;;6185596;23;20404;-86
2021/08/16 12:47:32;;;;;;;19.00;17.30;;;16.30;99.90;;;;;;6185895;23;20401;-90
2021/08/16 12:50:00;;;;;;;16.87;15.23;;;16.20;99.90;;;;;;6195379;23;20436;-88
2021/08/16 12:52:27;;;;;;;13.07;11.40;;;16.10;99.90;;;;;;6184134;23;20756;-87
2021/08/16 12:54:56;;;;;;;15.63;11.70;;;16.00;99.90;;;;;;6186180;23;20437;-84
2021/08/16 12:57:24;;;;;;;14.47;10.93;;;16.00;99.90;;;;;;6195568;23;20408;-89
2021/08/16 12:59:51;;;;;;;21.60;20.10;;;16.00;99.90;;;;;;6195615;23;20445;-89
2021/08/16 13:02:23;;;;;;;26.37;24.17;;;16.00;99.90;;;;;;6185815;23;20433;-89
2021/08/16 13:04:52;;;;;;;20.07;18.40;;;16.10;99.90;;;;;;6195584;23;20448;-89
2021/08/16 13:07:19;;;;;;;20.27;18.60;;;16.00;99.90;;;;;;6194473;23;20413;-85
2021/08/16 13:09:46;;;;;;;16.70;15.10;;;16.10;99.90;;;;;;6195601;23;20408;-87
2021/08/16 13:12:18;;;;;;;22.60;20.60;;;16.20;99.90;;;;;;6183984;23;20419;-86
2021/08/16 13:14:55;;;;;;;17.70;15.90;;;16.30;99.90;;;;;;6185603;23;20487;-86
2021/08/16 13:17:25;;;;;;;14.13;12.83;;;16.20;99.90;;;;;;6195470;23;20416;-86
2021/08/16 13:19:54;;;;;;;19.10;16.43;;;16.40;99.90;;;;;;6195053;23;20445;-86
2021/08/16 13:22:24;;;;;;;13.83;11.50;;;16.50;99.90;;;;;;6184322;23;20402;-86
2021/08/16 13:25:02;;;;;;;11.57;8.80;;;16.60;99.90;;;;;;6185617;23;20401;-86
2021/08/16 13:27:39;;;;;;;16.23;8.80;;;16.60;93.40;;;;;;6195579;23;20784;-86
2021/08/16 13:30:10;;;;;;;17.07;10.57;;;16.70;90.90;;;;;;6193935;23;20755;-87
2021/08/16 13:32:46;;;;;;;20.40;9.23;;;16.90;86.90;;;;;;6185078;23;20408;-88
2021/08/16 13:35:29;;;;;;;14.77;9.07;;;17.10;73.60;;;;;;6195046;23;20916;-86
2021/08/16 13:37:56;;;;;;;20.70;9.43;;;17.30;67.60;;;;;;6174057;23;20421;-86
2021/08/16 13:40:23;;;;;;;20.33;9.37;;;17.50;61.60;;;;;;6185404;23;20424;-85
2021/08/16 13:42:50;;;;;;;16.00;8.33;;;17.70;62.10;;;;;;6195084;23;20913;-84
2021/08/16 13:45:17;;;;;;;20.90;9.67;;;17.90;58.50;;;;;;6185520;23;20451;-83
2021/08/16 13:47:44;;;;;;;17.37;8.20;;;17.70;50.50;;;;;;6185356;23;20397;-86
2021/08/16 13:50:11;;;;;;;14.67;8.00;;;17.50;50.90;;;;;;6185554;23;20931;-84
2021/08/16 13:52:42;;;;;;;21.10;10.10;;;17.50;49.30;;;;;;6194184;23;20440;-84
2021/08/16 13:55:11;;;;;;;14.47;8.60;;;17.50;50.90;;;;;;6196212;23;20468;-84
2021/08/16 13:57:38;;;;;;;14.07;7.83;;;17.30;47.90;;;;;;6197361;23;20491;-83
2021/08/16 14:03:01;;;;;;;23.90;8.97;;;17.40;50.80;;;;;;6194890;23;20413;-84
2021/08/16 14:05:28;;;;;;;22.10;9.70;;;17.50;50.60;;;;;;6187429;23;20440;-86
2021/08/16 14:07:57;;;;;;;16.13;9.20;;;17.60;48.20;;;;;;6185789;23;20400;-88
2021/08/16 14:10:24;;;;;;;18.27;9.23;;;17.70;48.40;;;;;;6196512;23;20413;-87
2021/08/16 14:12:52;;;;;;;17.93;9.17;;;17.70;46.90;;;;;;6186072;23;20491;-85
2021/08/16 14:15:19;;;;;;;22.07;9.37;;;17.80;46.10;;;;;;6186562;23;20408;-87
2021/08/16 14:17:46;;;;;;;14.03;7.40;;;17.80;46.80;;;;;;6186506;23;20405;-87
2021/08/16 14:20:13;;;;;;;16.10;8.90;;;17.60;46.40;;;;;;6196327;23;20445;-87
2021/08/16 14:22:40;;;;;;;14.83;7.60;;;17.40;43.60;;;;;;6195062;23;20441;-88
2021/08/16 14:25:10;;;;;;;12.23;7.00;;;17.20;42.40;;;;;;6196439;23;20405;-85
2021/08/16 14:27:37;;;;;;;14.30;7.60;;;17.10;45.90;;;;;;6186188;23;20437;-85
2021/08/16 14:30:05;;;;;;;16.20;8.50;;;17.00;47.20;;;;;;6186252;23;20401;-86
2021/08/16 14:32:33;;;;;;;9.60;6.57;;;16.00;59.60;;;;;;6186457;23;20493;-82
2021/08/16 14:35:00;;;;;;;13.43;12.10;;;14.70;84.50;;;;;;6195963;23;20484;-87
2021/08/16 14:37:27;;;;;;;24.53;22.93;;;14.40;99.90;;;;;;6194474;23;20463;-89
2021/08/16 14:39:56;;;;;;;36.30;34.20;;;14.20;99.90;;;;;;6195647;23;20487;-87
2021/08/16 14:42:27;;;;;;;45.83;43.27;;;14.10;99.90;;;;;;6196258;23;20413;-84
2021/08/16 14:44:57;;;;;;;51.27;48.77;;;14.00;99.90;;;;;;6196224;23;20433;-87
2021/08/16 14:47:30;;;;;;;65.40;62.40;;;13.80;99.90;;;;;;6195887;23;20413;-87
2021/08/16 14:50:00;;;;;;;92.60;88.60;;;13.90;99.90;;;;;;6186156;23;20491;-90
2021/08/16 14:52:26;;;;;;;76.87;72.80;;;14.00;99.90;;;;;;6194322;23;20951;-85
2021/08/16 14:55:02;;;;;;;67.70;63.97;;;14.10;99.90;;;;;;6185989;23;20466;-90
2021/08/16 14:57:31;;;;;;;44.90;42.60;;;14.30;99.90;;;;;;6195967;23;20980;-84
2021/08/16 14:59:58;;;;;;;18.83;17.43;;;14.40;99.90;;;;;;6185778;23;20916;-86